Time;durP1;ratioP1;P1;durP2;ratioP2;P2;SDS_P1;SDS_P2;PMS_P1;PMS_P2;Temp;Humidity;BMP_temperature;BMP_pressure;BME280_temperature;BME280_humidity;BME280_pressure;Samples;Min_cycle;Max_cycle;Signal;HPM_P1;HPM_P2
2022/12/30 00:01:46;;;;;;;;;;;;;;;0.19;100.00;100737.91;5552873;32;34691;-69
2022/12/30 00:04:54;;;;;;;;;;;;;;;0.22;100.00;100732.50;5553158;32;33634;-69
2022/12/30 00:07:59;;;;;;;;;;;;;;;0.31;100.00;100721.50;5567029;32;34231;-70
2022/12/30 00:11:05;;;;;;;;;;;;;;;0.31;100.00;100724.09;5553538;32;33079;-69
2022/12/30 00:34:48;;;;;;;;;;;;;;;0.42;100.00;100743.41;5566639;32;34852;-68
2022/12/30 00:37:56;;;;;;;;;;;;;;;0.44;100.00;100732.84;5566632;32;33892;-71
2022/12/30 00:44:27;;;;;;;;;;;;;;;0.52;100.00;100728.00;5565932;32;34649;-69
2022/12/30 00:47:33;;;;;;;;;;;;;;;0.42;100.00;100735.56;5566573;32;34681;-69
2022/12/30 00:57:34;;;;;;;;;;;;;;;0.54;100.00;100744.38;5555515;32;33922;-69
2022/12/30 01:00:40;;;;;;;;;;;;;;;0.45;100.00;100737.12;5552683;32;34600;-69
2022/12/30 01:03:51;;;;;;;;;;;;;;;0.55;100.00;100732.19;5566137;32;35003;-69
2022/12/30 01:06:56;;;;;;;;;;;;;;;0.58;100.00;100732.00;5566031;32;34451;-70
2022/12/30 01:10:06;;;;;;;;;;;;;;;0.55;100.00;100727.81;5566143;32;34083;-69
2022/12/30 01:13:13;;;;;;;;;;;;;;;0.59;100.00;100713.62;5565936;32;34647;-68
2022/12/30 01:16:21;;;;;;;;;;;;;;;0.64;100.00;100718.56;5566078;32;34443;-70
2022/12/30 01:19:29;;;;;;;;;;;;;;;0.66;100.00;100722.75;5566023;32;34168;-69
2022/12/30 01:22:37;;;;;;;;;;;;;;;0.60;100.00;100717.06;5566000;32;33954;-68
2022/12/30 01:25:44;;;;;;;;;;;;;;;0.59;100.00;100711.00;5565855;32;33632;-69
2022/12/30 01:28:51;;;;;;;;;;;;;;;0.67;100.00;100713.16;5567483;31;33901;-68
2022/12/30 01:32:00;;;;;;;;;;;;;;;0.64;100.00;100708.09;5555410;32;34853;-68
2022/12/30 01:35:06;;;;;;;;;;;;;;;0.57;100.00;100706.84;5568823;32;34324;-68
2022/12/30 01:38:12;;;;;;;;;;;;;;;0.70;100.00;100707.72;5568588;32;34492;-69
2022/12/30 01:41:21;;;;;;;;;;;;;;;0.66;100.00;100701.87;5568412;32;34287;-69
2022/12/30 01:44:47;;;;;;;;;;;;;;;0.76;100.00;100709.97;5568516;32;34754;-69
2022/12/30 01:48:03;;;;;;;;;;;;;;;0.78;100.00;100708.06;5568504;32;34510;-69
2022/12/30 01:51:19;;;;;;;;;;;;;;;0.84;100.00;100715.53;5554615;32;32697;-69
2022/12/30 01:54:28;;;;;;;;;;;;;;;0.74;100.00;100696.16;5568431;32;34623;-69
2022/12/30 01:57:35;;;;;;;;;;;;;;;0.80;100.00;100704.44;5554956;32;33963;-69
2022/12/30 02:00:43;;;;;;;;;;;;;;;0.85;100.00;100697.16;5568342;32;34276;-69
2022/12/30 02:04:01;;;;;;;;;;;;;;;0.83;100.00;100695.56;5554379;32;33689;-69
2022/12/30 02:07:15;;;;;;;;;;;;;;;0.78;100.00;100695.00;5568149;32;34920;-68
2022/12/30 02:10:24;;;;;;;;;;;;;;;0.69;100.00;100696.44;5568670;32;33581;-68
2022/12/30 02:13:31;;;;;;;;;;;;;;;0.72;100.00;100688.44;5568494;32;33935;-68
2022/12/30 02:16:51;;;;;;;;;;;;;;;0.60;100.00;100681.37;5555019;32;34568;-69
2022/12/30 02:20:11;;;;;;;;;;;;;;;0.79;100.00;100681.88;5568418;32;34538;-70
2022/12/30 02:23:17;;;;;;;;;;;;;;;0.74;100.00;100678.72;5568156;32;34613;-69
2022/12/30 02:26:27;;;;;;;;;;;;;;;0.81;100.00;100677.41;5554046;32;34460;-69
2022/12/30 02:29:36;;;;;;;;;;;;;;;0.73;100.00;100674.41;5568145;32;34208;-70
2022/12/30 02:32:52;;;;;;;;;;;;;;;0.74;100.00;100676.09;5568206;32;34518;-69
2022/12/30 02:36:00;;;;;;;;;;;;;;;0.90;100.00;100675.97;5568224;32;34761;-69
2022/12/30 02:39:26;;;;;;;;;;;;;;;0.80;100.00;100683.53;5567670;32;34241;-69
2022/12/30 02:46:22;;;;;;;;;;;;;;;0.96;100.00;100675.56;5568091;32;34402;-69
2022/12/30 02:49:32;;;;;;;;;;;;;;;0.89;100.00;100666.44;5568041;32;34061;-70
2022/12/30 02:52:40;;;;;;;;;;;;;;;0.96;100.00;100665.13;5554710;32;33977;-70
2022/12/30 02:55:47;;;;;;;;;;;;;;;0.86;100.00;100677.94;5567953;32;34045;-69
2022/12/30 03:06:16;;;;;;;;;;;;;;;0.80;100.00;100678.31;5567818;32;34101;-69
2022/12/30 03:09:38;;;;;;;;;;;;;;;0.80;100.00;100674.87;5567678;32;34136;-69
2022/12/30 03:12:58;;;;;;;;;;;;;;;0.74;100.00;100677.87;5554446;32;34660;-69
2022/12/30 03:16:22;;;;;;;;;;;;;;;0.75;100.00;100682.16;5554310;32;34402;-69
2022/12/30 03:19:31;;;;;;;;;;;;;;;0.76;100.00;100681.22;5567947;32;33299;-69
2022/12/30 03:29:33;;;;;;;;;;;;;;;0.90;100.00;100665.50;5567527;32;34276;-69
2022/12/30 03:32:41;;;;;;;;;;;;;;;1.08;100.00;100673.91;5554422;32;34249;-69
2022/12/30 03:35:51;;;;;;;;;;;;;;;0.87;100.00;100665.72;5567990;32;35216;-69
2022/12/30 03:39:05;;;;;;;;;;;;;;;0.83;100.00;100664.22;5567826;32;34650;-69
2022/12/30 03:42:16;;;;;;;;;;;;;;;0.90;100.00;100657.69;5567344;32;34869;-69
2022/12/30 03:45:23;;;;;;;;;;;;;;;0.90;100.00;100672.50;5567436;32;34417;-69
2022/12/30 03:48:30;;;;;;;;;;;;;;;0.92;100.00;100673.25;5567413;32;33910;-69
2022/12/30 03:51:41;;;;;;;;;;;;;;;1.00;100.00;100669.19;5566608;32;33863;-69
2022/12/30 03:54:48;;;;;;;;;;;;;;;0.85;100.00;100654.53;5554022;32;34857;-69
2022/12/30 03:57:57;;;;;;;;;;;;;;;1.00;100.00;100650.91;5567388;32;34180;-69
2022/12/30 04:01:04;;;;;;;;;;;;;;;1.13;100.00;100651.78;5540934;32;33517;-69
2022/12/30 04:04:13;;;;;;;;;;;;;;;1.13;100.00;100646.56;5567228;32;34339;-68
2022/12/30 04:07:19;;;;;;;;;;;;;;;1.18;100.00;100657.53;5493191;32;2361109;-68
2022/12/30 04:10:27;;;;;;;;;;;;;;;1.16;100.00;100658.59;5567211;32;34372;-68
2022/12/30 04:13:33;;;;;;;;;;;;;;;1.13;100.00;100654.37;5540342;32;33092;-68
2022/12/30 04:16:42;;;;;;;;;;;;;;;1.10;100.00;100657.22;5541754;32;34569;-69
2022/12/30 04:19:49;;;;;;;;;;;;;;;1.06;100.00;100657.53;5553606;32;34638;-69
2022/12/30 04:23:00;;;;;;;;;;;;;;;1.09;100.00;100654.69;5567288;32;34590;-69
2022/12/30 04:26:08;;;;;;;;;;;;;;;1.09;100.00;100662.53;5553598;32;34004;-70
2022/12/30 04:29:18;;;;;;;;;;;;;;;0.96;100.00;100672.13;5566782;32;34168;-68
2022/12/30 04:32:24;;;;;;;;;;;;;;;1.09;100.00;100667.75;5552798;32;32911;-68
2022/12/30 04:35:30;;;;;;;;;;;;;;;1.12;100.00;100675.38;5553467;32;34637;-68
2022/12/30 04:38:39;;;;;;;;;;;;;;;1.22;100.00;100668.63;5553449;32;35322;-69
2022/12/30 04:41:48;;;;;;;;;;;;;;;1.22;100.00;100668.63;5566652;32;34728;-68
2022/12/30 04:44:56;;;;;;;;;;;;;;;1.20;100.00;100670.50;5566906;32;33939;-69
2022/12/30 04:48:05;;;;;;;;;;;;;;;1.15;100.00;100680.44;5566525;32;34271;-69
2022/12/30 04:51:11;;;;;;;;;;;;;;;1.03;100.00;100683.81;5566574;32;34476;-69
2022/12/30 04:54:22;;;;;;;;;;;;;;;1.13;100.00;100684.91;5553513;32;33827;-69
2022/12/30 04:57:29;;;;;;;;;;;;;;;1.10;100.00;100687.72;5566420;32;34910;-69
2022/12/30 05:00:36;;;;;;;;;;;;;;;1.12;100.00;100676.22;5553327;32;34207;-69
2022/12/30 05:03:45;;;;;;;;;;;;;;;1.18;100.00;100675.00;5568630;32;34240;-70
2022/12/30 05:06:54;;;;;;;;;;;;;;;1.18;100.00;100681.06;5568810;32;33772;-70
2022/12/30 05:10:01;;;;;;;;;;;;;;;1.11;100.00;100671.97;5568912;32;34575;-69
2022/12/30 05:13:09;;;;;;;;;;;;;;;1.15;100.00;100673.44;5568004;32;34820;-69
2022/12/30 05:16:15;;;;;;;;;;;;;;;1.03;100.00;100679.44;5555414;32;34066;-69
2022/12/30 05:19:23;;;;;;;;;;;;;;;1.16;100.00;100675.09;5568764;32;34829;-70
2022/12/30 05:22:32;;;;;;;;;;;;;;;1.07;100.00;100677.47;5555546;32;34809;-69
2022/12/30 05:29:05;;;;;;;;;;;;;;;1.10;100.00;100685.13;5568712;32;34131;-69
2022/12/30 05:32:12;;;;;;;;;;;;;;;1.04;100.00;100688.97;5568786;32;34317;-70
2022/12/30 05:35:19;;;;;;;;;;;;;;;1.02;100.00;100693.44;5555291;32;33924;-69
2022/12/30 05:38:27;;;;;;;;;;;;;;;1.13;100.00;100693.59;5568858;32;34369;-70
2022/12/30 05:41:34;;;;;;;;;;;;;;;1.13;100.00;100700.59;5568498;32;34846;-69
2022/12/30 05:44:45;;;;;;;;;;;;;;;1.20;100.00;100700.09;5568644;32;33883;-69
2022/12/30 05:47:53;;;;;;;;;;;;;;;1.07;100.00;100699.19;5568473;32;34224;-69
2022/12/30 05:51:02;;;;;;;;;;;;;;;1.13;100.00;100704.03;5568654;32;33897;-70
2022/12/30 05:54:08;;;;;;;;;;;;;;;1.11;100.00;100698.09;5568598;32;34334;-70
2022/12/30 05:57:18;;;;;;;;;;;;;;;1.07;100.00;100708.81;5551639;32;35551;-69
2022/12/30 06:00:24;;;;;;;;;;;;;;;1.16;100.00;100700.41;5568493;32;34258;-70
2022/12/30 06:03:32;;;;;;;;;;;;;;;1.20;100.00;100712.31;5568307;32;34161;-69
2022/12/30 06:06:40;;;;;;;;;;;;;;;1.12;100.00;100712.81;5554850;32;34638;-70
2022/12/30 06:09:50;;;;;;;;;;;;;;;1.17;100.00;100715.97;5529192;32;34207;-70
2022/12/30 06:12:57;;;;;;;;;;;;;;;1.20;100.00;100725.37;5528854;32;34183;-70
2022/12/30 06:16:05;;;;;;;;;;;;;;;1.25;100.00;100724.16;5529400;32;34697;-69
2022/12/30 06:19:12;;;;;;;;;;;;;;;1.19;100.00;100728.94;5515211;32;32869;-69
2022/12/30 06:22:20;;;;;;;;;;;;;;;1.24;100.00;100726.88;5529392;32;34175;-70
2022/12/30 06:25:26;;;;;;;;;;;;;;;1.12;100.00;100738.94;5529425;32;34316;-70
2022/12/30 06:28:35;;;;;;;;;;;;;;;1.15;100.00;100737.91;5529238;32;33873;-69
2022/12/30 06:31:43;;;;;;;;;;;;;;;1.30;100.00;100736.91;5516331;32;34726;-69
2022/12/30 06:34:52;;;;;;;;;;;;;;;1.25;100.00;100739.00;5529459;32;34521;-69
2022/12/30 06:37:59;;;;;;;;;;;;;;;1.23;100.00;100741.69;5529311;32;34148;-70
2022/12/30 06:41:07;;;;;;;;;;;;;;;1.18;100.00;100742.94;5502966;32;33011;-70
2022/12/30 06:44:16;;;;;;;;;;;;;;;1.24;100.00;100737.31;5516034;32;34592;-69
2022/12/30 06:47:25;;;;;;;;;;;;;;;1.28;100.00;100734.41;5529232;32;34023;-69
2022/12/30 06:50:32;;;;;;;;;;;;;;;1.18;100.00;100738.53;5529651;32;34104;-69
2022/12/30 06:53:40;;;;;;;;;;;;;;;1.21;100.00;100750.59;5529340;32;33970;-69
2022/12/30 06:56:47;;;;;;;;;;;;;;;1.33;100.00;100744.56;5529121;32;34126;-69
2022/12/30 06:59:54;;;;;;;;;;;;;;;1.53;100.00;100748.47;5529034;32;33974;-69
2022/12/30 07:03:02;;;;;;;;;;;;;;;1.49;100.00;100757.47;5528219;32;33842;-69
2022/12/30 07:06:07;;;;;;;;;;;;;;;1.52;100.00;100758.09;5541862;32;34224;-69
2022/12/30 07:09:12;;;;;;;;;;;;;;;1.43;100.00;100761.31;5581146;31;33905;-68
2022/12/30 07:12:24;;;;;;;;;;;;;;;1.25;100.00;100770.34;5587517;31;34297;-70
2022/12/30 07:15:32;;;;;;;;;;;;;;;1.24;100.00;100768.66;5587216;31;34617;-70
2022/12/30 07:18:40;;;;;;;;;;;;;;;1.29;100.00;100782.28;5574000;31;34244;-69
2022/12/30 07:21:47;;;;;;;;;;;;;;;1.37;100.00;100793.06;5587380;31;34718;-70
2022/12/30 07:24:56;;;;;;;;;;;;;;;1.43;100.00;100787.47;5585769;31;34626;-69
2022/12/30 07:28:03;;;;;;;;;;;;;;;1.54;100.00;100784.16;5572438;31;33530;-70
2022/12/30 07:31:12;;;;;;;;;;;;;;;1.41;100.00;100791.94;5587248;31;34374;-68
2022/12/30 07:34:20;;;;;;;;;;;;;;;1.37;100.00;100800.06;5587019;31;34674;-69
2022/12/30 07:37:28;;;;;;;;;;;;;;;1.54;100.00;100800.69;5573028;31;33623;-69
2022/12/30 07:40:36;;;;;;;;;;;;;;;1.59;100.00;100808.22;5572628;31;33340;-69
2022/12/30 07:43:43;;;;;;;;;;;;;;;1.67;100.00;100809.38;5573861;31;33111;-70
2022/12/30 07:46:51;;;;;;;;;;;;;;;1.69;100.00;100811.91;5573662;31;34698;-70
2022/12/30 07:49:58;;;;;;;;;;;;;;;1.78;100.00;100823.53;5587185;31;34852;-69
2022/12/30 07:53:08;;;;;;;;;;;;;;;1.62;100.00;100818.47;5587366;31;34156;-68
2022/12/30 07:56:15;;;;;;;;;;;;;;;1.60;100.00;100825.56;5581326;31;33757;-70
2022/12/30 07:59:22;;;;;;;;;;;;;;;1.77;100.00;100829.69;5552842;32;34119;-70
2022/12/30 08:02:32;;;;;;;;;;;;;;;1.77;100.00;100827.94;5553782;32;33926;-68
2022/12/30 08:05:41;;;;;;;;;;;;;;;1.75;100.00;100827.19;5567112;32;34558;-70
2022/12/30 08:08:47;;;;;;;;;;;;;;;1.83;100.00;100830.16;5553815;32;34787;-69
2022/12/30 08:11:54;;;;;;;;;;;;;;;1.86;100.00;100831.72;5566822;32;34864;-70
2022/12/30 08:15:04;;;;;;;;;;;;;;;1.93;100.00;100835.62;5566654;32;34437;-69
2022/12/30 08:18:12;;;;;;;;;;;;;;;2.10;100.00;100840.53;5567113;32;34371;-69
2022/12/30 08:21:23;;;;;;;;;;;;;;;1.95;100.00;100852.03;5567099;32;34978;-71
2022/12/30 08:24:32;;;;;;;;;;;;;;;2.08;100.00;100848.50;5540136;32;33638;-71
2022/12/30 08:27:40;;;;;;;;;;;;;;;2.04;100.00;100846.19;5553384;32;34285;-70
2022/12/30 08:30:50;;;;;;;;;;;;;;;1.93;100.00;100843.47;5553237;32;34135;-70
2022/12/30 08:33:58;;;;;;;;;;;;;;;2.09;100.00;100838.88;5552919;32;34121;-70
2022/12/30 08:37:04;;;;;;;;;;;;;;;2.08;100.00;100831.97;5567459;32;35127;-69
2022/12/30 08:40:10;;;;;;;;;;;;;;;2.04;100.00;100830.47;5554866;32;34120;-70
2022/12/30 08:43:18;;;;;;;;;;;;;;;2.17;100.00;100833.97;5542132;32;34054;-70
2022/12/30 08:46:26;;;;;;;;;;;;;;;2.18;100.00;100826.00;5555080;32;34081;-69
2022/12/30 08:49:33;;;;;;;;;;;;;;;2.27;100.00;100839.44;5568118;32;34752;-70
2022/12/30 08:52:39;;;;;;;;;;;;;;;2.41;100.00;100842.78;5568667;32;33871;-70
2022/12/30 08:55:46;;;;;;;;;;;;;;;2.26;100.00;100853.44;5567786;32;33663;-70
2022/12/30 08:58:52;;;;;;;;;;;;;;;2.40;100.00;100851.56;5550192;32;32732;-68
2022/12/30 09:02:00;;;;;;;;;;;;;;;2.51;100.00;100856.94;5553144;32;33524;-70
2022/12/30 09:05:07;;;;;;;;;;;;;;;2.59;100.00;100854.63;5542381;32;33134;-69
2022/12/30 09:08:13;;;;;;;;;;;;;;;2.64;100.00;100856.91;5555047;32;34848;-69
2022/12/30 09:11:19;;;;;;;;;;;;;;;2.57;100.00;100856.50;5568548;32;34861;-69
2022/12/30 09:14:26;;;;;;;;;;;;;;;2.63;100.00;100853.47;5541732;32;32994;-69
2022/12/30 09:17:33;;;;;;;;;;;;;;;2.64;100.00;100859.53;5554597;32;33934;-71
2022/12/30 09:20:39;;;;;;;;;;;;;;;2.69;100.00;100852.19;5554726;32;34242;-70
2022/12/30 09:23:45;;;;;;;;;;;;;;;2.61;100.00;100847.47;5555488;32;34357;-68
2022/12/30 09:26:49;;;;;;;;;;;;;;;2.57;100.00;100851.25;5554810;32;34787;-70
2022/12/30 09:30:02;;;;;;;;;;;;;;;2.64;100.00;100854.28;5568365;32;35042;-70
2022/12/30 09:33:07;;;;;;;;;;;;;;;2.74;100.00;100860.56;5568706;32;34011;-70
2022/12/30 09:36:11;;;;;;;;;;;;;;;3.02;100.00;100868.19;5568740;32;34324;-68
2022/12/30 09:39:30;;;;;;;;;;;;;;;2.84;100.00;100863.41;5568360;32;34023;-69
2022/12/30 09:46:17;;;;;;;;;;;;;;;3.11;100.00;100860.63;5567563;32;34004;-70
2022/12/30 09:49:28;;;;;;;;;;;;;;;3.06;100.00;100863.56;5540910;32;33997;-69
2022/12/30 09:52:57;;;;;;;;;;;;;;;3.09;100.00;100852.03;5568407;32;34264;-70
2022/12/30 09:56:12;;;;;;;;;;;;;;;3.13;100.00;100854.34;5545800;32;34198;-70
2022/12/30 09:59:21;;;;;;;;;;;;;;;2.95;100.00;100863.50;5568270;32;34852;-69
2022/12/30 10:02:30;;;;;;;;;;;;;;;3.15;100.00;100857.66;5555176;32;34433;-69
2022/12/30 10:05:43;;;;;;;;;;;;;;;3.22;100.00;100861.53;5554725;32;34842;-69
2022/12/30 10:09:15;;;;;;;;;;;;;;;3.17;100.00;100855.78;5537985;32;33020;-69
2022/12/30 10:12:26;;;;;;;;;;;;;;;3.28;100.00;100860.28;5568041;32;34022;-70
2022/12/30 10:15:45;;;;;;;;;;;;;;;3.33;100.00;100853.75;5567463;32;35372;-70
2022/12/30 10:19:10;;;;;;;;;;;;;;;3.17;100.00;100858.41;5567407;32;34228;-70
2022/12/30 10:22:24;;;;;;;;;;;;;;;3.34;100.00;100857.22;5568089;32;34786;-69
2022/12/30 10:25:38;;;;;;;;;;;;;;;3.46;100.00;100858.94;5566976;32;34719;-69
2022/12/30 10:28:50;;;;;;;;;;;;;;;3.42;100.00;100847.00;5554386;31;33045;-69
2022/12/30 10:32:05;;;;;;;;;;;;;;;3.40;100.00;100846.25;5566890;32;34249;-69
2022/12/30 10:35:15;;;;;;;;;;;;;;;3.39;100.00;100849.81;5550746;32;35505;-70
2022/12/30 10:38:26;;;;;;;;;;;;;;;3.63;100.00;100857.72;5555245;32;34135;-69
2022/12/30 10:41:50;;;;;;;;;;;;;;;3.65;100.00;100855.81;5554633;32;35263;-69
2022/12/30 10:45:12;;;;;;;;;;;;;;;3.81;100.00;100853.75;5554258;32;34591;-69
2022/12/30 10:48:37;;;;;;;;;;;;;;;3.62;100.00;100859.53;5540696;32;33351;-69
2022/12/30 10:51:43;;;;;;;;;;;;;;;3.47;100.00;100848.34;5567700;32;34277;-69
2022/12/30 10:54:49;;;;;;;;;;;;;;;3.38;100.00;100854.25;5541248;32;33110;-69
2022/12/30 10:57:58;;;;;;;;;;;;;;;3.22;100.00;100855.47;5567657;32;33750;-70
2022/12/30 11:01:05;;;;;;;;;;;;;;;3.27;100.00;100854.19;5567650;32;34331;-70
2022/12/30 11:04:38;;;;;;;;;;;;;;;3.16;100.00;100853.25;5541570;32;33998;-69
2022/12/30 11:07:56;;;;;;;;;;;;;;;3.28;100.00;100849.78;5567727;32;34551;-70
2022/12/30 11:11:04;;;;;;;;;;;;;;;3.41;100.00;100853.19;5565848;32;34685;-70
2022/12/30 11:17:51;;;;;;;;;;;;;;;3.77;100.00;100844.44;5550469;32;34209;-70
2022/12/30 11:20:58;;;;;;;;;;;;;;;3.73;100.00;100837.72;5539051;32;33769;-70
2022/12/30 11:24:14;;;;;;;;;;;;;;;4.05;100.00;100835.34;5567710;32;34082;-70
2022/12/30 11:27:36;;;;;;;;;;;;;;;3.98;100.00;100829.72;5541488;32;34312;-69
2022/12/30 11:30:53;;;;;;;;;;;;;;;3.93;100.00;100823.97;5553150;32;32645;-69
2022/12/30 11:34:00;;;;;;;;;;;;;;;4.22;100.00;100834.91;5533239;32;33415;-69
2022/12/30 11:37:20;;;;;;;;;;;;;;;4.27;100.00;100838.84;5521709;32;33283;-69
2022/12/30 11:40:30;;;;;;;;;;;;;;;4.78;100.00;100843.69;5534505;32;34473;-69
2022/12/30 11:43:37;;;;;;;;;;;;;;;4.73;100.00;100854.56;5547889;32;34889;-69
2022/12/30 11:46:49;;;;;;;;;;;;;;;4.72;100.00;100845.00;5534059;32;32660;-69
2022/12/30 11:49:58;;;;;;;;;;;;;;;4.87;100.00;100848.22;5535008;32;34475;-70
2022/12/30 11:53:05;;;;;;;;;;;;;;;5.08;100.00;100838.62;5521558;32;32560;-70
2022/12/30 11:56:13;;;;;;;;;;;;;;;5.52;100.00;100844.78;5528129;32;34259;-69
2022/12/30 11:59:32;;;;;;;;;;;;;;;5.57;100.00;100837.34;5534329;32;34781;-70
2022/12/30 12:02:44;;;;;;;;;;;;;;;5.32;100.00;100859.56;5522091;32;32948;-70
2022/12/30 12:06:05;;;;;;;;;;;;;;;5.36;100.00;100860.13;5547195;32;34730;-70
2022/12/30 12:09:14;;;;;;;;;;;;;;;5.10;100.00;100862.19;5550495;32;34973;-70
2022/12/30 12:12:25;;;;;;;;;;;;;;;5.01;100.00;100876.06;5552145;32;34250;-71
2022/12/30 12:15:39;;;;;;;;;;;;;;;4.59;100.00;100867.94;5553962;32;34756;-71
2022/12/30 12:18:48;;;;;;;;;;;;;;;4.90;100.00;100873.44;5553626;32;34338;-70
2022/12/30 12:21:57;;;;;;;;;;;;;;;4.82;100.00;100874.03;5566483;32;34117;-70
2022/12/30 12:25:13;;;;;;;;;;;;;;;4.64;100.00;100884.19;5551374;32;35070;-70
2022/12/30 12:28:21;;;;;;;;;;;;;;;4.74;100.00;100873.81;5565487;32;34336;-70
2022/12/30 12:31:43;;;;;;;;;;;;;;;4.72;100.00;100873.06;5566839;32;34773;-70
2022/12/30 12:35:12;;;;;;;;;;;;;;;4.78;100.00;100869.97;5566831;32;34919;-70
2022/12/30 12:38:20;;;;;;;;;;;;;;;5.17;100.00;100864.25;5553185;32;33323;-70
2022/12/30 12:41:26;;;;;;;;;;;;;;;5.27;100.00;100866.12;5566576;32;34896;-70
2022/12/30 12:44:58;;;;;;;;;;;;;;;5.23;100.00;100868.16;5552995;32;34411;-69
2022/12/30 12:48:18;;;;;;;;;;;;;;;5.24;100.00;100881.19;5566483;32;34646;-69
2022/12/30 12:51:26;;;;;;;;;;;;;;;5.26;100.00;100878.44;5566611;32;34199;-70
2022/12/30 12:54:40;;;;;;;;;;;;;;;4.74;100.00;100872.00;5566248;32;34192;-70
2022/12/30 12:58:02;;;;;;;;;;;;;;;4.71;100.00;100861.72;5565210;32;33976;-71
2022/12/30 13:01:28;;;;;;;;;;;;;;;4.96;100.00;100868.53;5565857;32;34813;-70
2022/12/30 13:04:42;;;;;;;;;;;;;;;4.92;100.00;100868.91;5565325;32;34879;-70
2022/12/30 13:07:56;;;;;;;;;;;;;;;5.28;100.00;100867.81;5566126;32;34392;-71
2022/12/30 13:11:29;;;;;;;;;;;;;;;5.91;100.00;100867.03;5541716;32;32941;-69
2022/12/30 13:14:50;;;;;;;;;;;;;;;6.52;100.00;100868.06;5566127;32;34066;-69
2022/12/30 13:18:00;;;;;;;;;;;;;;;7.11;100.00;100862.09;5566007;32;34059;-70
2022/12/30 13:21:09;;;;;;;;;;;;;;;6.79;100.00;100873.59;5565871;32;34429;-71
2022/12/30 13:24:23;;;;;;;;;;;;;;;6.56;100.00;100882.62;5568151;32;34401;-70
2022/12/30 13:27:30;;;;;;;;;;;;;;;6.25;100.00;100897.53;5568014;32;34173;-70
2022/12/30 13:30:52;;;;;;;;;;;;;;;6.04;100.00;100891.44;5568424;32;33952;-71
2022/12/30 13:34:18;;;;;;;;;;;;;;;5.88;100.00;100891.00;5554441;32;33540;-70
2022/12/30 13:37:42;;;;;;;;;;;;;;;5.76;100.00;100886.72;5554013;32;33041;-70
2022/12/30 13:41:04;;;;;;;;;;;;;;;5.45;100.00;100896.22;5553176;32;33255;-70
2022/12/30 13:44:17;;;;;;;;;;;;;;;5.37;100.00;100906.53;5568306;32;34910;-70
2022/12/30 13:47:27;;;;;;;;;;;;;;;5.24;100.00;100914.53;5568512;32;34711;-70
2022/12/30 13:50:36;;;;;;;;;;;;;;;5.03;100.00;100909.19;5567630;32;34870;-70
2022/12/30 13:53:46;;;;;;;;;;;;;;;5.12;100.00;100912.91;5541637;32;34172;-69
2022/12/30 13:56:54;;;;;;;;;;;;;;;5.22;100.00;100901.53;5553408;32;32746;-69
2022/12/30 14:00:09;;;;;;;;;;;;;;;5.21;100.00;100910.38;5567438;32;34159;-70
2022/12/30 14:03:24;;;;;;;;;;;;;;;5.21;100.00;100914.81;5567016;32;34509;-70
2022/12/30 14:06:48;;;;;;;;;;;;;;;5.25;100.00;100914.44;5568299;32;34779;-69
2022/12/30 14:10:33;;;;;;;;;;;;;;;5.09;100.00;100911.31;5554411;32;33078;-71
2022/12/30 14:13:43;;;;;;;;;;;;;;;5.04;100.00;100917.88;5471706;32;34791;-70
2022/12/30 14:16:56;;;;;;;;;;;;;;;4.98;100.00;100931.53;5541376;32;32741;-70
2022/12/30 14:20:20;;;;;;;;;;;;;;;5.03;100.00;100938.13;5567558;32;34366;-70
2022/12/30 14:23:46;;;;;;;;;;;;;;;4.85;100.00;100941.31;5567217;32;33922;-70
2022/12/30 14:26:53;;;;;;;;;;;;;;;4.82;100.00;100943.22;5550563;31;34286;-71
2022/12/30 14:30:05;;;;;;;;;;;;;;;4.80;100.00;100952.16;5555103;31;34027;-71
2022/12/30 14:33:13;;;;;;;;;;;;;;;4.77;100.00;100952.41;5568220;32;34179;-70
2022/12/30 14:36:23;;;;;;;;;;;;;;;4.88;100.00;100954.22;5552972;32;34311;-70
2022/12/30 14:39:32;;;;;;;;;;;;;;;4.89;100.00;100953.28;5567990;32;34171;-70
2022/12/30 14:42:39;;;;;;;;;;;;;;;4.78;100.00;100949.69;5541321;32;34617;-71
2022/12/30 14:45:48;;;;;;;;;;;;;;;4.88;100.00;100952.44;5567624;32;34200;-71
2022/12/30 14:49:00;;;;;;;;;;;;;;;4.69;100.00;100949.53;5554631;32;34358;-70
2022/12/30 14:52:10;;;;;;;;;;;;;;;4.61;100.00;100949.25;5541362;32;33020;-71
2022/12/30 14:55:31;;;;;;;;;;;;;;;4.51;100.00;100959.63;5553734;32;33773;-70
2022/12/30 14:58:38;;;;;;;;;;;;;;;4.46;100.00;100963.53;5541299;32;32877;-70
2022/12/30 15:01:58;;;;;;;;;;;;;;;4.44;100.00;100975.97;5541076;32;33036;-70
2022/12/30 15:05:15;;;;;;;;;;;;;;;4.37;100.00;100980.84;5567611;32;34027;-70
2022/12/30 15:08:21;;;;;;;;;;;;;;;4.36;100.00;100989.66;5567201;32;34609;-70
2022/12/30 15:11:27;;;;;;;;;;;;;;;4.35;100.00;100982.75;5567523;32;32933;-70
2022/12/30 15:14:36;;;;;;;;;;;;;;;4.37;100.00;100981.69;5567551;32;33045;-71
2022/12/30 15:17:45;;;;;;;;;;;;;;;4.37;100.00;100988.72;5553163;32;33070;-70
2022/12/30 15:20:53;;;;;;;;;;;;;;;4.30;100.00;100982.25;5567511;32;35172;-70
2022/12/30 15:24:01;;;;;;;;;;;;;;;4.29;100.00;100983.19;5551658;32;34053;-70
2022/12/30 15:27:14;;;;;;;;;;;;;;;4.30;100.00;100979.63;5551858;32;33953;-70
2022/12/30 15:30:23;;;;;;;;;;;;;;;4.38;100.00;100978.09;5566509;32;33941;-70
2022/12/30 15:33:30;;;;;;;;;;;;;;;4.43;100.00;100984.81;5566722;32;34067;-70
2022/12/30 15:36:37;;;;;;;;;;;;;;;4.39;100.00;100994.69;5567632;32;33987;-70
2022/12/30 15:39:45;;;;;;;;;;;;;;;4.34;100.00;100997.66;5566415;32;34828;-70
2022/12/30 15:42:55;;;;;;;;;;;;;;;4.43;100.00;100988.28;5554096;32;34386;-70
2022/12/30 15:46:03;;;;;;;;;;;;;;;4.31;100.00;100987.38;5539234;32;36941;-71
2022/12/30 15:49:18;;;;;;;;;;;;;;;4.26;100.00;100986.88;5566873;32;34075;-71
2022/12/30 15:52:29;;;;;;;;;;;;;;;4.24;100.00;100987.94;5567148;32;34435;-71
2022/12/30 15:55:40;;;;;;;;;;;;;;;4.17;100.00;101000.69;5554174;32;34734;-70
2022/12/30 15:58:48;;;;;;;;;;;;;;;4.20;100.00;100994.38;5567296;32;34563;-70
2022/12/30 16:01:57;;;;;;;;;;;;;;;4.20;100.00;101003.09;5528032;32;33640;-70
2022/12/30 16:05:08;;;;;;;;;;;;;;;4.19;100.00;101008.44;5565920;32;34404;-70
2022/12/30 16:08:26;;;;;;;;;;;;;;;4.21;100.00;101009.19;5553762;32;34380;-70
2022/12/30 16:11:50;;;;;;;;;;;;;;;4.25;100.00;101011.47;5565887;32;34223;-71
2022/12/30 16:15:17;;;;;;;;;;;;;;;4.27;100.00;101016.59;5566760;32;34275;-71
2022/12/30 16:18:30;;;;;;;;;;;;;;;4.22;100.00;101016.09;5566281;32;34657;-71
2022/12/30 16:21:47;;;;;;;;;;;;;;;4.21;100.00;101015.25;5566840;32;34107;-71
2022/12/30 16:24:56;;;;;;;;;;;;;;;4.29;100.00;101017.34;5566850;32;34561;-71
2022/12/30 16:28:02;;;;;;;;;;;;;;;4.28;100.00;101008.62;5566089;31;34410;-71
2022/12/30 16:31:12;;;;;;;;;;;;;;;4.24;100.00;101022.09;5566628;32;34267;-70
2022/12/30 16:34:18;;;;;;;;;;;;;;;4.21;100.00;101028.38;5539562;32;33639;-69
2022/12/30 16:37:35;;;;;;;;;;;;;;;4.18;100.00;101026.00;5566262;32;34583;-69
2022/12/30 16:40:57;;;;;;;;;;;;;;;4.26;100.00;101031.50;5565752;32;34342;-69
2022/12/30 16:44:18;;;;;;;;;;;;;;;4.27;100.00;101033.19;5552484;32;34837;-69
2022/12/30 16:47:24;;;;;;;;;;;;;;;4.30;100.00;101038.25;5552349;32;33073;-69
2022/12/30 16:50:34;;;;;;;;;;;;;;;4.36;100.00;101029.06;5565529;32;34329;-69
2022/12/30 16:53:41;;;;;;;;;;;;;;;4.37;100.00;101025.50;5565970;32;34852;-71
2022/12/30 16:56:48;;;;;;;;;;;;;;;4.48;100.00;101048.34;5561847;32;34507;-69
2022/12/30 16:59:56;;;;;;;;;;;;;;;4.44;100.00;101054.78;5554284;32;33235;-70
2022/12/30 17:03:26;;;;;;;;;;;;;;;4.54;100.00;101046.13;5557212;32;34058;-70
2022/12/30 17:06:34;;;;;;;;;;;;;;;4.49;100.00;101048.25;5573854;31;33139;-70
2022/12/30 17:13:12;;;;;;;;;;;;;;;4.51;100.00;101051.59;5574267;31;34693;-70
2022/12/30 17:16:25;;;;;;;;;;;;;;;4.45;100.00;101048.59;5567442;32;35321;-69
2022/12/30 17:19:33;;;;;;;;;;;;;;;4.34;100.00;101042.31;5567368;32;34038;-70
2022/12/30 17:22:39;;;;;;;;;;;;;;;4.31;100.00;101037.28;5568585;32;34907;-70